Friday, May 25, 2018, 8:31 AM EDT

KW99, Petersburg, Grant County Airport

Location: Petersburg, WV, United States Lat: 38.983
Local Time: 8:31 AM EDT (12:31 GMT) Lon: -79.133
Time Zone: US/Eastern Elev: 961 ft

Show me the last for .
Show Coded

Time T Td Feel RH Dir Speed Gust Alt SLP Vis Weather Sky Remarks
2018-05-25 08:15 58 55 - 88 - Calm - 30.10 - 10 CLR None
2018-05-25 07:55 56 54 - 92 - Calm - 30.11 - 10 CLR 6-hr Min Temp (8am): 51.1°F
6-hr Max Temp (8am): 56.5°F
2018-05-25 07:35 55 54 - 94 - Calm - 30.11 - 10 CLR None
2018-05-25 07:15 54 53 - 97 - Calm - 30.12 - 10 CLR None
2018-05-25 06:55 53 53 - 99 - Calm - 30.12 - 7 CLR None
2018-05-25 06:35 52 51 - 98 - Calm - 30.12 - 5 BR CLR None
2018-05-25 06:15 51 51 - 98 - Calm - 30.12 - 1 BR VV007 None
2018-05-25 05:55 52 52 - 99 - Calm - 30.12 - 4 BR CLR None
2018-05-25 05:35 51 51 - 98 - Calm - 30.12 - 5 BR CLR None
2018-05-25 05:15 52 51 - 98 - Calm - 30.12 - 5 BR CLR None
2018-05-25 04:55 52 52 - 99 - Calm - 30.12 - 1 BR VV007 None
2018-05-25 04:35 53 52 - 98 - Calm - 30.12 - 4 BR CLR None
2018-05-25 04:15 53 52 - 98 - Calm - 30.12 - 5 BR CLR None
2018-05-25 03:55 53 52 - 98 - Calm - 30.12 - 10 CLR None
2018-05-25 03:35 53 53 - 98 - Calm - 30.12 - 5 BR CLR None
2018-05-25 03:15 53 53 - 98 - Calm - 30.12 - 7 CLR None
2018-05-25 02:55 53 53 - 98 - Calm - 30.13 - 7 CLR None
2018-05-25 02:35 54 54 - 98 - Calm - 30.14 - 7 CLR None
2018-05-25 02:15 54 53 - 97 - Calm - 30.14 - 10 CLR None
2018-05-25 01:55 55 55 - 97 - Calm - 30.14 - 5 BR CLR 6-hr Min Temp (2am): 54.0°F
6-hr Max Temp (2am): 72.7°F
24-hr Min Temp (2am): 50.5°F
24-hr Max Temp (2am): 81.5°F
2018-05-25 01:35 55 54 - 98 - Calm - 30.14 - 5 BR CLR None
2018-05-25 01:15 55 55 - 96 - Calm - 30.15 - 10 CLR None
2018-05-25 00:55 56 55 - 97 - Calm - 30.16 - 7 CLR None
2018-05-25 00:35 56 55 - 96 - Calm - 30.16 - 10 CLR None
2018-05-25 00:15 56 55 - 96 - Calm - 30.16 - 7 CLR None
2018-05-24 23:55 57 55 - 91 - Calm - 30.17 - 10 CLR None
2018-05-24 23:35 57 55 - 93 - Calm - 30.16 - 10 CLR None
2018-05-24 23:15 58 56 - 90 - Calm - 30.17 - 10 CLR None
2018-05-24 22:55 59 56 - 87 - Calm - 30.17 - 10 CLR None
2018-05-24 22:35 59 56 - 90 - Calm - 30.17 - 10 CLR None
2018-05-24 22:15 60 56 - 84 - Calm - 30.17 - 10 CLR None
2018-05-24 21:55 61 56 - 82 - Calm - 30.16 - 10 CLR None
2018-05-24 21:35 63 56 - 78 - Calm - 30.16 - 10 CLR None
2018-05-24 21:15 62 57 - 82 - Calm - 30.16 - 10 CLR None
2018-05-24 20:55 64 57 - 76 260° 6 - 30.15 - 10 CLR None
2018-05-24 20:35 67 58 - 72 290° 6 - 30.15 - 10 CLR None
2018-05-24 20:15 69 58 - 68 290° 3 - 30.14 - 10 CLR None
2018-05-24 19:55 73 55 77 52 - Calm - 30.14 - 10 CLR 6-hr Min Temp (8pm): 73.2°F
6-hr Max Temp (8pm): 81.5°F
2018-05-24 19:35 75 56 77 53 - Calm - 30.13 - 10 CLR None
2018-05-24 19:15 79 49 - 34 - Calm - 30.13 - 10 CLR None
2018-05-24 18:55 80 51 - 36 - Calm - 30.12 - 10 CLR None
2018-05-24 18:35 80 53 - 39 90° 5 - 30.13 - 10 CLR None
2018-05-24 18:15 80 53 - 39 - Calm - 30.13 - 10 CLR None
2018-05-24 17:55 81 50 - 34 - Calm - 30.14 - 10 CLR None
2018-05-24 17:35 81 50 - 34 - Calm - 30.14 - 10 CLR None
2018-05-24 17:15 80 50 - 35 - Calm - 30.14 - 10 CLR None
2018-05-24 16:55 80 50 - 34 - Calm - 30.15 - 10 CLR None
2018-05-24 16:35 81 51 - 35 - Calm - 30.16 - 10 CLR None
2018-05-24 16:15 79 49 - 34 - Calm - 30.17 - 10 CLR None
2018-05-24 15:55 80 53 - 39 350° 3 - 30.17 - 10 CLR None
2018-05-24 15:35 79 49 - 34 - Calm - 30.18 - 10 CLR None
2018-05-24 15:15 79 52 - 39 - Calm - 30.18 - 10 CLR None
2018-05-24 14:55 78 50 - 36 340° 5 - 30.19 - 10 CLR None
2018-05-24 14:35 79 50 - 37 290° 3 - 30.20 - 10 CLR None
2018-05-24 14:15 78 50 - 36 280° 3 - 30.21 - 10 CLR None
2018-05-24 13:55 78 48 - 34 - Calm - 30.21 - 10 CLR 6-hr Min Temp (2pm): 55.0°F
6-hr Max Temp (2pm): 78.1°F
2018-05-24 13:35 77 49 - 37 150° 5 - 30.22 - 10 CLR None
2018-05-24 13:15 77 54 78 44 290° 3 - 30.23 - 10 CLR None
2018-05-24 12:55 77 52 78 42 - Calm - 30.23 - 10 CLR None
2018-05-24 12:35 75 53 77 46 - Calm - 30.24 - 10 CLR None
2018-05-24 12:15 74 54 77 49 180° 3 - 30.24 - 10 CLR None
2018-05-24 11:55 73 56 77 55 - Calm - 30.25 - 10 CLR None
2018-05-24 11:35 73 56 76 55 - Calm - 30.25 - 10 CLR None
2018-05-24 11:15 72 57 76 59 - Calm - 30.25 - 10 CLR None
2018-05-24 10:55 71 58 76 61 - Calm - 30.25 - 10 CLR None
2018-05-24 10:35 70 56 - 61 - Calm - 30.25 - 10 CLR None
2018-05-24 10:15 67 58 - 72 - Calm - 30.25 - 10 CLR None
2018-05-24 09:55 65 56 - 72 - Calm - 30.26 - 10 CLR None
2018-05-24 09:35 63 57 - 79 - Calm - 30.26 - 10 CLR None
2018-05-24 09:15 61 56 - 82 - Calm - 30.26 - 10 CLR None
2018-05-24 08:55 60 55 - 83 - Calm - 30.26 - 10 CLR None
2018-05-24 08:35 59 55 - 87 - Calm - 30.26 - 10 CLR None

Support USWX by starting your Amazon purchase here.